createdAt,value
2019-04-22T00:00:03.053Z,66.01
2019-04-22T00:05:29.118Z,65.8
2019-04-22T00:15:40.704Z,65.15
2019-04-22T00:30:40.285Z,65.58
2019-04-22T00:35:54.326Z,66.26
2019-04-22T00:40:58.960Z,67.67
2019-04-22T00:45:42.755Z,69.89
2019-04-22T00:50:45.844Z,70.37
2019-04-22T00:55:45.592Z,69.71
2019-04-22T01:05:54.794Z,68.86
2019-04-22T01:11:02.840Z,66.37
2019-04-22T01:15:57.013Z,64.8
2019-04-22T01:21:00.379Z,65.3
2019-04-22T01:25:36.316Z,65.46
2019-04-22T01:30:26.373Z,65.19
2019-04-22T01:35:28.518Z,65.58
2019-04-22T01:41:32.001Z,64.97
2019-04-22T01:45:39.094Z,63.25
2019-04-22T01:55:49.555Z,63.84
2019-04-22T02:00:59.072Z,65.89
2019-04-22T02:05:42.421Z,62.04
2019-04-22T02:15:51.781Z,66.68
2019-04-22T02:20:54.315Z,68.38
2019-04-22T02:26:00.516Z,70.4
2019-04-22T02:31:25.390Z,72.98
2019-04-22T02:36:16.513Z,73.14
2019-04-22T02:40:55.758Z,74.72
2019-04-22T02:46:32.202Z,75.87
2019-04-22T02:50:53.899Z,75.27
2019-04-22T02:56:22.531Z,75.68
2019-04-22T03:01:22.434Z,75.84
2019-04-22T03:06:23.786Z,77.18
2019-04-22T03:10:54.504Z,77.61
2019-04-22T03:20:49.864Z,74.5
2019-04-22T03:27:29.310Z,74.39
2019-04-22T03:36:17.898Z,75.19
2019-04-22T03:41:27.024Z,75.7
2019-04-22T03:45:45.485Z,76.52
2019-04-22T03:50:35.924Z,77.38
2019-04-22T04:00:47.298Z,79.02
2019-04-22T04:06:16.797Z,80.23
2019-04-22T04:10:47.477Z,81
2019-04-22T04:15:33.845Z,81.65
2019-04-22T04:20:58.077Z,82.41
2019-04-22T04:25:46.390Z,82.71
2019-04-22T04:31:16.848Z,83.04
2019-04-22T04:35:45.765Z,83.45
2019-04-22T04:41:15.101Z,84.4
2019-04-22T04:45:53.932Z,84.65
2019-04-22T04:50:57.934Z,85.04
2019-04-22T04:55:33.014Z,85.59
2019-04-22T05:01:01.860Z,85.69
2019-04-22T05:20:50.434Z,84.27
2019-04-22T05:35:45.487Z,76.7
2019-04-22T05:40:34.004Z,73.28
2019-04-22T05:45:50.784Z,65.19
2019-04-22T05:56:01.363Z,59.95
2019-04-22T06:01:18.317Z,59.11
2019-04-22T06:05:46.749Z,63
2019-04-22T06:10:51.482Z,59.44
2019-04-22T06:15:42.459Z,58.87
2019-04-22T06:20:52.864Z,64.35
2019-04-22T06:26:09.492Z,66.15
2019-04-22T06:36:01.622Z,61.08
2019-04-22T06:40:38.966Z,66.34
2019-04-22T06:45:33.604Z,58.73
2019-04-22T06:50:59.907Z,52.25
2019-04-22T06:55:51.117Z,51.22
2019-04-22T07:00:51.839Z,49.66
2019-04-22T07:05:46.195Z,49.62
2019-04-22T07:10:54.570Z,49.7
2019-04-22T07:16:03.449Z,48.49
2019-04-22T07:20:36.141Z,48.36
2019-04-22T07:25:51.713Z,49.45
2019-04-22T07:30:44.453Z,47.91
2019-04-22T07:40:38.614Z,47.81
2019-04-22T07:45:35.711Z,46
2019-04-22T07:51:06.837Z,46.94
2019-04-22T07:55:45.187Z,46.25
2019-04-22T08:00:33.935Z,46.7
2019-04-22T08:05:43.884Z,45.37
2019-04-22T08:10:36.644Z,43.47
2019-04-22T08:20:53.905Z,43.17
2019-04-22T08:25:54.108Z,43.23
2019-04-22T08:30:39.404Z,42.24
2019-04-22T08:40:46.939Z,41.19
2019-04-22T08:45:56.054Z,44
2019-04-22T08:50:44.055Z,39.22
2019-04-22T08:55:38.049Z,39.81
2019-04-22T09:06:10.811Z,39.52
2019-04-22T09:11:03.047Z,37.89
2019-04-22T09:25:48.332Z,38.27
2019-04-22T09:31:05.606Z,40.57
2019-04-22T09:40:34.067Z,34.83
2019-04-22T09:45:52.246Z,34.17
2019-04-22T09:50:34.545Z,33.19
2019-04-22T09:55:49.645Z,31.52
2019-04-22T10:00:37.243Z,32.13
2019-04-22T10:10:34.601Z,30.74
2019-04-22T10:16:02.239Z,30.32
2019-04-22T10:21:00.248Z,29.03
2019-04-22T10:25:52.144Z,29.23
2019-04-22T10:30:59.659Z,29.01
2019-04-22T10:35:12.724Z,29.63
2019-04-22T10:40:08.148Z,30
2019-04-22T10:45:01.642Z,30.37
2019-04-22T10:50:02.899Z,29.79
2019-04-22T10:55:03.586Z,30.36
2019-04-22T11:00:03.035Z,29.66
2019-04-22T11:05:02.167Z,30.15
2019-04-22T11:10:27.202Z,29.05
2019-04-22T11:15:01.791Z,29.43
2019-04-22T11:20:02.104Z,29.31
2019-04-22T11:25:03.518Z,31.11
2019-04-22T11:30:03.505Z,28.98
2019-04-22T11:35:01.860Z,28.38
2019-04-22T11:40:22.195Z,28.67
2019-04-22T11:45:01.799Z,29.43
2019-04-22T11:50:02.265Z,28.56
2019-04-22T11:55:01.938Z,29.18
2019-04-22T12:00:01.728Z,28.85
2019-04-22T12:05:03.686Z,29.76
2019-04-22T12:10:27.129Z,28.77
2019-04-22T12:15:01.418Z,28.73
2019-04-22T12:20:08.317Z,29.48
2019-04-22T12:25:01.383Z,29.59
2019-04-22T12:30:03.144Z,29.59
2019-04-22T12:35:01.965Z,29.81
2019-04-22T12:40:02.797Z,29.31
2019-04-22T12:45:02.635Z,29.47
2019-04-22T12:50:18.330Z,29.75
2019-04-22T12:55:01.776Z,30.15
2019-04-22T13:00:03.623Z,31.76
2019-04-22T13:05:01.947Z,31.83
2019-04-22T13:10:01.684Z,28.8
2019-04-22T13:15:06.445Z,27.84
2019-04-22T13:20:02.779Z,27.66
2019-04-22T13:25:03.953Z,28.61
2019-04-22T13:30:06.179Z,27.88
2019-04-22T13:35:03.624Z,28.08
2019-04-22T13:40:03.650Z,28.57
2019-04-22T13:45:02.095Z,28.44
2019-04-22T13:51:13.033Z,29.1
2019-04-22T13:55:51.003Z,29.82
2019-04-22T14:00:05.726Z,29.85
2019-04-22T14:05:01.717Z,29.96
2019-04-22T14:10:02.771Z,28.73
2019-04-22T14:15:02.459Z,29.38
2019-04-22T14:20:02.791Z,30.21
2019-04-22T14:25:03.052Z,30.04
2019-04-22T14:30:02.168Z,29.68
2019-04-22T14:35:03.189Z,29.41
2019-04-22T14:40:09.341Z,29.92
2019-04-22T14:46:02.570Z,28.7
2019-04-22T14:50:45.058Z,29.77
2019-04-22T14:55:17.403Z,29.88
2019-04-22T15:00:03.859Z,29.62
2019-04-22T15:05:01.619Z,29.63
2019-04-22T15:10:02.230Z,30.19
2019-04-22T15:15:01.826Z,28.52
2019-04-22T15:20:03.883Z,28.22
2019-04-22T15:25:03.121Z,29.37
2019-04-22T15:30:01.489Z,30.22
2019-04-22T15:35:02.089Z,30.87
2019-04-22T15:40:02.975Z,30.59
2019-04-22T15:45:05.296Z,29.98
2019-04-22T15:50:01.798Z,30.84
2019-04-22T15:55:04.426Z,30.21
2019-04-22T16:00:29.031Z,29.79
2019-04-22T16:05:04.137Z,29.92
2019-04-22T16:10:03.500Z,27.05
2019-04-22T16:15:05.552Z,28.11
2019-04-22T16:20:02.241Z,28.53
2019-04-22T16:25:02.576Z,28.34
2019-04-22T16:30:03.723Z,29.18
2019-04-22T16:35:01.612Z,29.76
2019-04-22T16:40:03.215Z,30.87
2019-04-22T16:45:02.157Z,32.81
2019-04-22T16:50:03.650Z,33.71
2019-04-22T16:55:05.006Z,34
2019-04-22T17:00:02.982Z,35.39
2019-04-22T17:05:02.229Z,35.36
2019-04-22T17:10:02.095Z,35.03
2019-04-22T17:15:09.878Z,35.84
2019-04-22T17:20:03.203Z,36.19
2019-04-22T17:25:04.193Z,36.43
2019-04-22T17:30:02.655Z,36.77
2019-04-22T17:35:02.364Z,37.04
2019-04-22T17:40:32.843Z,36.9
2019-04-22T17:50:44.241Z,37.62
2019-04-22T17:55:40.225Z,37.24
2019-04-22T18:00:31.834Z,37.55
2019-04-22T18:05:09.800Z,37.43
2019-04-22T18:10:45.519Z,37.22
2019-04-22T18:15:29.202Z,37.53
2019-04-22T18:20:33.239Z,36.93
2019-04-22T18:25:27.367Z,37.2
2019-04-22T18:30:31.955Z,37.1
2019-04-22T18:35:33.726Z,37.16
2019-04-22T18:40:34.624Z,37.57
2019-04-22T18:45:54.358Z,37.5
2019-04-22T18:50:51.264Z,38.2
2019-04-22T18:55:33.160Z,38.94
2019-04-22T19:00:05.187Z,39.31
2019-04-22T19:05:21.988Z,39.77
2019-04-22T19:10:57.384Z,40.15
2019-04-22T19:16:01.352Z,39.79
2019-04-22T19:20:37.250Z,39.73
2019-04-22T19:25:31.575Z,39.9
2019-04-22T19:30:41.304Z,40.3
2019-04-22T19:35:34.761Z,40.4
2019-04-22T19:41:00.363Z,40.51
2019-04-22T19:50:51.846Z,40.78
2019-04-22T19:55:40.573Z,40.77
2019-04-22T20:00:28.171Z,40.82
2019-04-22T20:05:43.188Z,40.62
2019-04-22T20:10:41.902Z,40.43
2019-04-22T20:15:33.190Z,40.3
2019-04-22T20:25:27.792Z,39.48
2019-04-22T20:30:45.644Z,39.42
2019-04-22T20:35:38.571Z,39.64
2019-04-22T20:40:42.327Z,40.28
2019-04-22T20:45:50.955Z,40.53
2019-04-22T20:50:41.053Z,40.34
2019-04-22T21:00:30.470Z,40.68
2019-04-22T21:05:30.079Z,40.48
2019-04-22T21:10:37.119Z,41.18
2019-04-22T21:15:49.056Z,41.57
2019-04-22T21:20:56.017Z,41.32
2019-04-22T21:25:25.116Z,41.58
2019-04-22T21:30:42.643Z,41.69
2019-04-22T21:36:13.610Z,41.83
2019-04-22T21:40:42.636Z,42.12
2019-04-22T21:45:27.256Z,42.4
2019-04-22T21:50:41.194Z,42.85
2019-04-22T22:05:33.890Z,43.67
2019-04-22T22:10:44.748Z,43.95
2019-04-22T22:15:41.857Z,44.52
2019-04-22T22:30:47.181Z,45.43
2019-04-22T22:35:40.280Z,45.95
2019-04-22T22:40:15.365Z,46.55
2019-04-22T22:45:26.034Z,46.6
2019-04-22T22:50:29.846Z,46.74
2019-04-22T23:00:34.940Z,47.04
2019-04-22T23:05:44.841Z,47.46
2019-04-22T23:10:59.874Z,48.13
2019-04-22T23:15:38.332Z,47.95
2019-04-22T23:20:06.864Z,48.08
2019-04-22T23:25:49.798Z,48.11
2019-04-22T23:30:21.434Z,48.42
2019-04-22T23:40:34.178Z,48.87
2019-04-22T23:50:43.643Z,49.87
2019-04-22T23:55:43.135Z,49.76
